createdAt,value
2023-03-26T00:01:23.886Z,1.00
2023-03-26T00:03:58.810Z,0.00
2023-03-26T00:06:28.964Z,0.00
2023-03-26T00:08:57.960Z,0.00
2023-03-26T00:11:27.769Z,0.00
2023-03-26T00:13:58.056Z,0.00
2023-03-26T00:16:28.236Z,0.00
2023-03-26T00:18:56.186Z,0.00
2023-03-26T00:21:28.456Z,0.00
2023-03-26T00:24:04.625Z,0.00
2023-03-26T00:26:33.875Z,1.00
2023-03-26T00:29:03.589Z,0.00
2023-03-26T00:31:31.462Z,0.00
2023-03-26T00:33:58.419Z,1.00
2023-03-26T00:36:27.003Z,1.25
2023-03-26T00:38:54.802Z,2.00
2023-03-26T00:41:25.880Z,2.00
2023-03-26T00:43:56.687Z,1.75
2023-03-26T00:46:25.433Z,1.75
2023-03-26T00:48:52.483Z,1.00
2023-03-26T00:51:21.676Z,0.00
2023-03-26T00:53:49.997Z,0.00
2023-03-26T00:56:17.601Z,0.00
2023-03-26T00:58:44.888Z,0.00
2023-03-26T01:01:15.042Z,0.50
2023-03-26T01:03:56.712Z,0.00
2023-03-26T01:06:33.128Z,0.00
2023-03-26T01:09:14.903Z,0.00
2023-03-26T01:11:42.144Z,0.00
2023-03-26T01:14:21.009Z,0.75
2023-03-26T01:16:52.738Z,0.00
2023-03-26T01:19:47.952Z,0.00
2023-03-26T01:22:21.429Z,0.00
2023-03-26T01:24:54.124Z,0.00
2023-03-26T01:27:46.449Z,0.00
2023-03-26T01:30:21.761Z,0.00
2023-03-26T01:33:03.889Z,0.00
2023-03-26T01:36:04.946Z,0.00
2023-03-26T01:38:48.391Z,0.00
2023-03-26T01:41:45.324Z,0.00
2023-03-26T01:44:17.516Z,0.00
2023-03-26T01:46:46.959Z,0.00
2023-03-26T01:49:13.961Z,0.00
2023-03-26T01:51:42.803Z,2.00
2023-03-26T01:54:15.825Z,1.00
2023-03-26T01:57:23.547Z,1.00
2023-03-26T02:00:12.304Z,1.00
2023-03-26T02:02:58.127Z,2.00
2023-03-26T02:05:38.071Z,2.00
2023-03-26T02:08:12.093Z,3.75
2023-03-26T02:10:49.226Z,2.00
2023-03-26T02:13:16.318Z,2.00
2023-03-26T02:15:58.950Z,1.00
2023-03-26T02:18:36.441Z,2.00
2023-03-26T02:21:21.951Z,1.25
2023-03-26T02:23:58.009Z,1.75
2023-03-26T02:26:25.851Z,1.00
2023-03-26T02:28:52.721Z,2.00
2023-03-26T02:31:19.693Z,2.00
2023-03-26T02:33:48.000Z,1.00
2023-03-26T02:36:18.251Z,1.75
2023-03-26T02:38:45.527Z,1.75
2023-03-26T02:41:12.392Z,1.25
2023-03-26T02:43:39.296Z,2.25
2023-03-26T02:46:06.235Z,0.00
2023-03-26T02:48:34.930Z,2.00
2023-03-26T02:51:02.913Z,2.00
2023-03-26T02:53:30.082Z,2.00
2023-03-26T02:56:01.178Z,2.00
2023-03-26T02:58:30.289Z,1.00
2023-03-26T03:00:57.356Z,2.00
2023-03-26T03:03:26.384Z,1.00
2023-03-26T03:05:55.421Z,0.25
2023-03-26T03:08:26.518Z,1.00
2023-03-26T03:11:14.862Z,1.00
2023-03-26T03:13:42.464Z,0.00
2023-03-26T03:16:10.488Z,0.00
2023-03-26T03:18:37.977Z,0.00
2023-03-26T03:21:06.383Z,0.00
2023-03-26T03:23:33.738Z,0.00
2023-03-26T03:26:00.715Z,0.25
2023-03-26T03:28:27.605Z,0.00
2023-03-26T03:30:57.790Z,0.00
2023-03-26T03:33:24.817Z,0.00
2023-03-26T03:35:51.725Z,0.00
2023-03-26T03:38:19.444Z,0.00
2023-03-26T03:40:46.417Z,0.00
2023-03-26T03:43:13.343Z,0.00
2023-03-26T03:45:40.197Z,0.00
2023-03-26T03:48:07.116Z,0.00
2023-03-26T03:50:35.802Z,0.00
2023-03-26T03:53:05.862Z,0.00
2023-03-26T03:55:32.959Z,0.00
2023-03-26T03:58:00.180Z,0.00
2023-03-26T04:00:27.241Z,0.00
2023-03-26T04:02:54.740Z,1.00
2023-03-26T04:05:21.871Z,0.75
2023-03-26T04:07:48.795Z,1.00
2023-03-26T04:10:16.722Z,0.25
2023-03-26T04:12:43.626Z,0.25
2023-03-26T04:15:10.659Z,1.75
2023-03-26T04:17:42.972Z,1.00
2023-03-26T04:20:16.056Z,2.00
2023-03-26T04:22:43.925Z,1.00
2023-03-26T04:25:12.375Z,1.50
2023-03-26T04:27:41.909Z,1.00
2023-03-26T04:30:15.275Z,0.50
2023-03-26T04:32:43.197Z,0.00
2023-03-26T04:35:14.661Z,1.00
2023-03-26T04:37:43.455Z,0.25
2023-03-26T04:40:15.480Z,0.00
2023-03-26T04:42:46.495Z,1.00
2023-03-26T04:45:15.775Z,2.00
2023-03-26T04:47:42.760Z,1.00
2023-03-26T04:50:11.492Z,0.75
2023-03-26T04:52:38.744Z,1.00
2023-03-26T04:55:33.587Z,2.00
2023-03-26T04:58:03.645Z,1.00
2023-03-26T05:00:30.516Z,0.00
2023-03-26T05:02:59.689Z,1.00
2023-03-26T05:05:28.222Z,1.00
2023-03-26T05:07:55.931Z,1.00
2023-03-26T05:10:23.711Z,1.00
2023-03-26T05:12:50.575Z,0.00
2023-03-26T05:15:17.592Z,0.25
2023-03-26T05:17:44.510Z,1.00
2023-03-26T05:20:23.157Z,0.00
2023-03-26T05:22:51.102Z,0.50
2023-03-26T05:25:18.730Z,0.00
2023-03-26T05:27:46.309Z,1.00
2023-03-26T05:30:19.611Z,0.25
2023-03-26T05:32:52.315Z,0.00
2023-03-26T05:35:20.246Z,0.00
2023-03-26T05:37:48.259Z,0.75
2023-03-26T05:40:17.351Z,3.25
2023-03-26T05:42:45.702Z,1.00
2023-03-26T05:45:14.654Z,1.00
2023-03-26T05:47:41.675Z,1.00
2023-03-26T05:50:09.706Z,0.25
2023-03-26T05:52:36.912Z,0.00
2023-03-26T05:55:04.031Z,0.50
2023-03-26T05:57:31.909Z,1.00
2023-03-26T05:59:58.797Z,0.00
2023-03-26T06:02:25.780Z,1.25
2023-03-26T06:04:52.808Z,1.00
2023-03-26T06:07:20.440Z,1.00
2023-03-26T06:09:47.345Z,1.00
2023-03-26T06:12:15.244Z,1.00
2023-03-26T06:14:45.969Z,1.00
2023-03-26T06:17:13.191Z,1.00
2023-03-26T06:19:40.118Z,0.50
2023-03-26T06:22:07.025Z,1.00
2023-03-26T06:24:34.654Z,1.00
2023-03-26T06:27:01.549Z,1.00
2023-03-26T06:29:28.571Z,1.00
2023-03-26T06:31:55.742Z,1.00
2023-03-26T06:34:24.038Z,0.75
2023-03-26T06:36:52.853Z,1.00
2023-03-26T06:39:20.400Z,0.00
2023-03-26T06:41:47.744Z,1.00
2023-03-26T06:44:14.778Z,1.00
2023-03-26T06:46:41.731Z,0.00
2023-03-26T06:49:08.725Z,1.00
2023-03-26T06:51:35.667Z,0.00
2023-03-26T06:54:02.595Z,0.00
2023-03-26T06:56:29.468Z,2.00
2023-03-26T06:58:56.930Z,1.00
2023-03-26T07:01:23.913Z,0.50
2023-03-26T07:03:50.892Z,0.00
2023-03-26T07:06:17.849Z,0.00
2023-03-26T07:08:44.850Z,1.00
2023-03-26T07:11:11.775Z,1.00
2023-03-26T07:13:40.184Z,0.00
2023-03-26T07:16:07.615Z,0.00
2023-03-26T07:18:34.602Z,0.00
2023-03-26T07:21:01.940Z,1.00
2023-03-26T07:23:29.057Z,0.50
2023-03-26T07:25:56.194Z,0.25
2023-03-26T07:28:40.398Z,0.00
2023-03-26T07:31:30.145Z,1.00
2023-03-26T07:34:10.587Z,1.00
2023-03-26T07:36:47.385Z,1.00
2023-03-26T07:39:20.071Z,1.00
2023-03-26T07:42:17.438Z,0.75
2023-03-26T07:45:19.763Z,1.00
2023-03-26T07:47:49.678Z,1.25
2023-03-26T07:50:19.488Z,1.00
2023-03-26T07:52:46.736Z,1.00
2023-03-26T07:55:15.438Z,1.00
2023-03-26T07:58:15.651Z,1.00
2023-03-26T08:00:52.317Z,1.00
2023-03-26T08:03:31.614Z,2.00
2023-03-26T08:06:19.487Z,1.00
2023-03-26T08:09:00.483Z,1.75
2023-03-26T08:11:47.997Z,1.00
2023-03-26T08:14:59.781Z,1.00
2023-03-26T08:17:39.975Z,1.00
2023-03-26T08:20:31.377Z,1.00
2023-03-26T08:23:19.945Z,1.00
2023-03-26T08:26:02.717Z,1.00
2023-03-26T08:28:48.811Z,1.00
2023-03-26T08:31:17.924Z,1.00
2023-03-26T08:33:45.466Z,1.00
2023-03-26T08:36:12.387Z,1.50
2023-03-26T08:38:39.302Z,2.00
2023-03-26T08:41:25.405Z,1.00
2023-03-26T08:44:15.729Z,1.50
2023-03-26T08:46:57.541Z,1.00
2023-03-26T08:50:01.930Z,0.00
2023-03-26T08:52:35.856Z,0.50
2023-03-26T08:55:20.829Z,1.00
2023-03-26T08:58:06.196Z,0.00
2023-03-26T09:01:03.917Z,0.00
2023-03-26T09:03:50.796Z,2.00
2023-03-26T09:06:33.195Z,1.00
2023-03-26T09:09:41.821Z,1.00
2023-03-26T09:12:17.310Z,0.00
2023-03-26T09:14:52.996Z,0.00
2023-03-26T09:17:41.031Z,0.00
2023-03-26T09:20:29.829Z,0.00
2023-03-26T09:23:05.959Z,1.00
2023-03-26T09:25:40.019Z,1.00
2023-03-26T09:28:57.406Z,1.25
2023-03-26T09:31:30.201Z,2.00
2023-03-26T09:34:30.684Z,2.00
2023-03-26T09:37:14.517Z,1.00
2023-03-26T09:40:05.532Z,2.00
2023-03-26T09:43:03.122Z,1.00
2023-03-26T09:46:13.458Z,2.00
2023-03-26T09:49:12.073Z,1.00
2023-03-26T09:52:03.453Z,2.00
2023-03-26T09:54:46.683Z,3.00
2023-03-26T09:57:40.020Z,1.25
2023-03-26T10:00:23.286Z,2.00
2023-03-26T10:03:07.198Z,2.25
2023-03-26T10:05:44.835Z,2.00
2023-03-26T10:08:20.614Z,2.00
2023-03-26T10:10:57.899Z,1.75
2023-03-26T10:13:30.945Z,1.75
2023-03-26T10:16:30.133Z,3.00
2023-03-26T10:19:29.780Z,3.25
2023-03-26T10:22:12.017Z,4.00
2023-03-26T10:25:11.185Z,3.00
2023-03-26T10:27:38.026Z,4.00
2023-03-26T10:30:32.860Z,3.75
2023-03-26T10:33:47.104Z,3.00
2023-03-26T10:36:36.393Z,4.00
2023-03-26T10:39:38.975Z,4.50
2023-03-26T10:42:29.691Z,4.50
2023-03-26T10:45:18.222Z,4.50
2023-03-26T10:48:11.751Z,4.00
2023-03-26T10:51:06.451Z,5.75
2023-03-26T10:53:48.124Z,4.50
2023-03-26T10:56:32.373Z,6.00
2023-03-26T10:59:06.646Z,6.25
2023-03-26T11:01:52.045Z,7.25
2023-03-26T11:04:49.776Z,6.75
2023-03-26T11:07:29.875Z,5.00
2023-03-26T11:10:08.052Z,5.00
2023-03-26T11:12:43.690Z,4.75
2023-03-26T11:15:34.288Z,4.00
2023-03-26T11:18:10.696Z,4.00
2023-03-26T11:20:44.897Z,1.25
2023-03-26T11:23:24.604Z,4.00
2023-03-26T11:25:57.360Z,2.75
2023-03-26T11:29:03.614Z,3.00
2023-03-26T11:31:45.920Z,0.00
2023-03-26T11:34:21.265Z,3.00
2023-03-26T11:36:52.948Z,4.00
2023-03-26T11:39:26.368Z,3.00
2023-03-26T11:42:03.646Z,3.75
2023-03-26T11:44:56.286Z,3.25
2023-03-26T11:47:40.905Z,3.50
2023-03-26T11:50:16.511Z,3.00
2023-03-26T11:52:44.906Z,2.00
2023-03-26T11:55:13.275Z,3.75
2023-03-26T11:57:45.761Z,2.75
2023-03-26T12:00:19.707Z,2.00
2023-03-26T12:02:48.442Z,2.75
2023-03-26T12:05:38.553Z,2.00
2023-03-26T12:08:19.890Z,2.00
2023-03-26T12:10:58.834Z,2.00
2023-03-26T12:13:52.766Z,2.00
2023-03-26T12:16:21.442Z,2.00
2023-03-26T12:19:04.093Z,2.00
2023-03-26T12:21:44.062Z,1.00
2023-03-26T12:24:32.481Z,1.00
2023-03-26T12:27:22.048Z,1.75
2023-03-26T12:30:00.254Z,1.00
2023-03-26T12:32:43.363Z,2.00
2023-03-26T12:35:27.410Z,2.00
2023-03-26T12:37:58.225Z,1.75
2023-03-26T12:40:36.034Z,2.25
2023-03-26T12:44:51.664Z,1.00
2023-03-26T12:47:56.221Z,1.25
2023-03-26T12:49:13.997Z,2.00
2023-03-26T12:51:57.809Z,1.75
2023-03-26T12:54:52.594Z,5.00
2023-03-26T12:57:20.484Z,2.25
2023-03-26T12:59:50.636Z,3.25
2023-03-26T13:02:32.947Z,2.00
2023-03-26T13:05:27.634Z,2.00
2023-03-26T13:08:13.181Z,1.25
2023-03-26T13:11:04.379Z,3.00
2023-03-26T13:13:58.947Z,2.00
2023-03-26T13:16:47.943Z,2.00
2023-03-26T13:19:33.054Z,1.00
2023-03-26T13:22:35.408Z,1.00
2023-03-26T13:25:31.174Z,1.00
2023-03-26T13:28:24.269Z,1.00
2023-03-26T13:31:15.745Z,2.00
2023-03-26T13:34:27.953Z,0.50
2023-03-26T13:37:18.176Z,1.00
2023-03-26T13:40:12.547Z,1.75
2023-03-26T13:43:11.879Z,0.00
2023-03-26T13:45:51.022Z,1.00
2023-03-26T13:48:27.293Z,0.25
2023-03-26T13:51:44.260Z,0.50
2023-03-26T13:54:44.176Z,1.25
2023-03-26T13:57:41.686Z,1.00
2023-03-26T14:00:38.009Z,1.00
2023-03-26T14:03:30.804Z,1.75
2023-03-26T14:06:27.765Z,1.50
2023-03-26T14:09:34.279Z,0.00
2023-03-26T14:12:35.437Z,0.00
2023-03-26T14:15:10.308Z,0.50
2023-03-26T14:17:43.247Z,1.00
2023-03-26T14:20:47.765Z,1.00
2023-03-26T14:23:34.544Z,0.00
2023-03-26T14:26:14.449Z,0.00
2023-03-26T14:29:13.574Z,0.75
2023-03-26T14:31:49.743Z,1.00
2023-03-26T14:34:45.676Z,0.25
2023-03-26T14:37:28.785Z,1.00
2023-03-26T14:40:20.114Z,2.00
2023-03-26T14:42:55.154Z,0.00
2023-03-26T14:45:54.338Z,1.00
2023-03-26T14:48:51.702Z,0.25
2023-03-26T14:51:59.111Z,1.00
2023-03-26T14:54:29.961Z,1.75
2023-03-26T14:57:23.227Z,2.00
2023-03-26T15:00:16.058Z,1.00
2023-03-26T15:02:42.975Z,2.00
2023-03-26T15:05:49.246Z,1.00
2023-03-26T15:08:48.834Z,1.50
2023-03-26T15:11:27.639Z,1.00
2023-03-26T15:14:16.187Z,2.00
2023-03-26T15:17:18.473Z,1.25
2023-03-26T15:20:17.631Z,2.00
2023-03-26T15:23:15.672Z,6.00
2023-03-26T15:26:13.352Z,3.00
2023-03-26T15:29:03.717Z,2.00
2023-03-26T15:32:02.542Z,3.25
2023-03-26T15:35:06.109Z,2.25
2023-03-26T15:38:23.526Z,1.75
2023-03-26T15:40:56.801Z,2.00
2023-03-26T15:43:32.232Z,2.00
2023-03-26T15:46:11.357Z,2.50
2023-03-26T15:48:50.371Z,2.50
2023-03-26T15:51:32.900Z,2.00
2023-03-26T15:54:28.608Z,2.00
2023-03-26T15:57:20.132Z,1.25
2023-03-26T16:00:23.094Z,1.00
2023-03-26T16:03:14.224Z,1.00
2023-03-26T16:06:07.430Z,1.00
2023-03-26T16:09:12.879Z,1.00
2023-03-26T16:11:48.812Z,2.00
2023-03-26T16:14:23.855Z,1.00
2023-03-26T16:16:59.390Z,1.00
2023-03-26T16:19:36.472Z,1.00
2023-03-26T16:22:12.054Z,2.00
2023-03-26T16:24:45.155Z,2.00
2023-03-26T16:27:15.483Z,2.00
2023-03-26T16:30:00.804Z,0.50
2023-03-26T16:32:33.653Z,1.00
2023-03-26T16:35:16.137Z,0.25
2023-03-26T16:37:50.852Z,0.00
2023-03-26T16:40:17.941Z,1.00
2023-03-26T16:43:06.526Z,0.75
2023-03-26T16:45:53.664Z,0.00
2023-03-26T16:48:32.277Z,0.75
2023-03-26T16:51:20.449Z,0.00
2023-03-26T16:53:59.600Z,0.50
2023-03-26T16:56:33.717Z,1.00
2023-03-26T16:59:22.386Z,1.75
2023-03-26T17:02:13.969Z,0.25
2023-03-26T17:04:47.658Z,1.00
2023-03-26T17:07:35.496Z,0.00
2023-03-26T17:10:19.454Z,1.00
2023-03-26T17:13:26.261Z,0.50
2023-03-26T17:16:13.637Z,1.00
2023-03-26T17:19:04.167Z,1.00
2023-03-26T17:21:47.056Z,2.00
2023-03-26T17:24:26.818Z,4.00
2023-03-26T17:26:53.730Z,4.00
2023-03-26T17:29:30.371Z,4.00
2023-03-26T17:32:03.542Z,4.00
2023-03-26T17:34:46.999Z,5.00
2023-03-26T17:37:17.060Z,6.00
2023-03-26T17:39:43.948Z,5.00
2023-03-26T17:42:19.249Z,3.00
2023-03-26T17:44:58.326Z,3.00
2023-03-26T17:47:25.324Z,2.75
2023-03-26T17:50:01.966Z,3.00
2023-03-26T17:52:41.899Z,3.00
2023-03-26T17:55:15.225Z,2.50
2023-03-26T17:57:44.902Z,2.00
2023-03-26T18:00:21.058Z,2.00
2023-03-26T18:02:55.525Z,1.75
2023-03-26T18:05:25.765Z,2.75
2023-03-26T18:08:11.749Z,1.50
2023-03-26T18:11:02.964Z,2.00
2023-03-26T18:13:44.811Z,1.00
2023-03-26T18:16:21.510Z,2.00
2023-03-26T18:18:59.274Z,1.50
2023-03-26T18:21:37.511Z,2.00
2023-03-26T18:24:07.289Z,3.00
2023-03-26T18:26:47.114Z,2.00
2023-03-26T18:29:25.886Z,1.00
2023-03-26T18:32:19.998Z,0.25
2023-03-26T18:34:50.212Z,1.00
2023-03-26T18:37:35.550Z,1.00
2023-03-26T18:40:16.427Z,1.00
2023-03-26T18:42:51.952Z,1.00
2023-03-26T18:45:24.589Z,1.00
2023-03-26T18:48:00.248Z,1.00
2023-03-26T18:50:31.123Z,1.00
2023-03-26T18:53:24.023Z,0.25
2023-03-26T18:55:52.591Z,0.50
2023-03-26T18:58:36.161Z,0.25
2023-03-26T19:01:20.186Z,2.00
2023-03-26T19:03:51.616Z,7.25
2023-03-26T19:06:21.079Z,3.00
2023-03-26T19:08:49.078Z,4.00
2023-03-26T19:11:17.830Z,3.25
2023-03-26T19:13:50.112Z,2.50
2023-03-26T19:16:34.213Z,2.50
2023-03-26T19:19:05.403Z,2.25
2023-03-26T19:21:34.643Z,1.25
2023-03-26T19:24:02.875Z,2.00
2023-03-26T19:26:30.527Z,1.25
2023-03-26T19:28:58.784Z,1.50
2023-03-26T19:31:36.158Z,2.25
2023-03-26T19:34:12.093Z,1.00
2023-03-26T19:36:58.440Z,2.00
2023-03-26T19:42:06.714Z,2.00
2023-03-26T19:44:39.669Z,2.00
2023-03-26T19:47:17.624Z,3.25
2023-03-26T19:49:47.591Z,2.00
2023-03-26T19:52:25.445Z,4.00
2023-03-26T19:55:02.560Z,4.00
2023-03-26T19:57:32.222Z,5.00
2023-03-26T19:59:59.861Z,4.00
2023-03-26T20:02:27.788Z,3.50
2023-03-26T20:04:54.904Z,3.50
2023-03-26T20:07:35.306Z,3.00
2023-03-26T20:10:05.817Z,3.00
2023-03-26T20:12:33.296Z,2.00
2023-03-26T20:15:02.061Z,2.75
2023-03-26T20:17:31.116Z,2.75
2023-03-26T20:19:58.062Z,3.75
2023-03-26T20:22:25.453Z,3.50
2023-03-26T20:24:52.430Z,2.00
2023-03-26T20:27:19.591Z,1.25
2023-03-26T20:29:46.852Z,2.00
2023-03-26T20:32:26.302Z,2.00
2023-03-26T20:34:54.328Z,1.00
2023-03-26T20:37:21.668Z,1.00
2023-03-26T20:39:48.550Z,2.00
2023-03-26T20:42:16.211Z,3.00
2023-03-26T20:44:43.828Z,2.00
2023-03-26T20:47:11.784Z,2.00
2023-03-26T20:49:39.171Z,2.00
2023-03-26T20:52:06.399Z,2.00
2023-03-26T20:54:33.411Z,3.00
2023-03-26T20:57:00.411Z,2.00
2023-03-26T20:59:28.494Z,2.00
2023-03-26T21:01:57.979Z,1.25
2023-03-26T21:04:26.405Z,1.00
2023-03-26T21:06:57.543Z,1.00
2023-03-26T21:09:34.346Z,0.00
2023-03-26T21:12:17.093Z,2.00
2023-03-26T21:14:44.469Z,3.50
2023-03-26T21:17:15.905Z,4.00
2023-03-26T21:19:43.255Z,4.75
2023-03-26T21:22:22.845Z,4.00
2023-03-26T21:25:12.360Z,3.00
2023-03-26T21:28:14.891Z,4.00
2023-03-26T21:30:42.655Z,3.00
2023-03-26T21:33:09.820Z,4.25
2023-03-26T21:35:37.082Z,3.75
2023-03-26T21:38:05.238Z,2.00
2023-03-26T21:40:33.321Z,3.00
2023-03-26T21:43:00.737Z,3.00
2023-03-26T21:45:28.113Z,2.50
2023-03-26T21:47:55.656Z,7.00
2023-03-26T21:50:23.802Z,7.50
2023-03-26T21:52:52.031Z,9.25
2023-03-26T21:55:22.702Z,10.00
2023-03-26T21:57:58.506Z,9.00
2023-03-26T22:00:42.714Z,8.75
2023-03-26T22:03:30.518Z,8.00
2023-03-26T22:06:33.750Z,7.50
2023-03-26T22:09:01.068Z,7.50
2023-03-26T22:11:27.943Z,8.00
2023-03-26T22:13:56.454Z,7.50
2023-03-26T22:16:25.592Z,8.75
2023-03-26T22:18:54.043Z,7.00
2023-03-26T22:21:23.668Z,10.00
2023-03-26T22:23:54.803Z,8.25
2023-03-26T22:26:25.474Z,7.75
2023-03-26T22:28:52.490Z,5.75
2023-03-26T22:31:19.643Z,3.75
2023-03-26T22:33:46.650Z,2.50
2023-03-26T22:36:23.446Z,4.00
2023-03-26T22:38:53.933Z,3.25
2023-03-26T22:41:21.997Z,3.75
2023-03-26T22:43:52.204Z,3.00
2023-03-26T22:46:19.792Z,4.00
2023-03-26T22:48:48.368Z,10.00
2023-03-26T22:51:16.331Z,12.75
2023-03-26T22:53:44.052Z,9.25
2023-03-26T22:56:12.158Z,9.00
2023-03-26T22:58:39.050Z,4.00
2023-03-26T23:01:09.768Z,6.00
2023-03-26T23:03:37.593Z,6.00
2023-03-26T23:06:07.833Z,5.25
2023-03-26T23:08:37.613Z,4.00
2023-03-26T23:11:13.807Z,3.50
2023-03-26T23:13:41.688Z,3.50
2023-03-26T23:16:10.374Z,3.00
2023-03-26T23:18:38.890Z,8.75
2023-03-26T23:21:12.160Z,8.00
2023-03-26T23:23:39.922Z,7.75
2023-03-26T23:26:07.426Z,4.50
2023-03-26T23:28:35.841Z,3.00
2023-03-26T23:31:05.439Z,1.25
2023-03-26T23:33:35.678Z,3.25
2023-03-26T23:36:09.335Z,4.25
2023-03-26T23:38:43.408Z,8.00
2023-03-26T23:41:15.429Z,8.50
2023-03-26T23:43:54.021Z,8.25
2023-03-26T23:46:31.043Z,14.00
2023-03-26T23:49:00.216Z,24.25
2023-03-26T23:51:27.553Z,25.25
2023-03-26T23:53:54.541Z,24.00
2023-03-26T23:56:21.493Z,19.00
2023-03-26T23:58:49.093Z,13.00
